createdAt,value
2017-07-28T00:02:14.358Z,94886.83
2017-07-28T00:04:42.174Z,94886.91
2017-07-28T00:07:09.673Z,94885.23
2017-07-28T00:09:37.243Z,94887.67
2017-07-28T00:12:04.798Z,94884.11
2017-07-28T00:14:32.325Z,94894.81
2017-07-28T00:16:59.929Z,94890.77
2017-07-28T00:19:27.520Z,94888.06
2017-07-28T00:21:55.093Z,94882.78
2017-07-28T00:24:22.731Z,94889.40
2017-07-28T00:26:50.324Z,94884.94
2017-07-28T00:29:17.865Z,94882.06
2017-07-28T00:31:45.438Z,94883.21
2017-07-28T00:34:13.201Z,94895.52
2017-07-28T00:36:41.861Z,94896.33
2017-07-28T00:39:09.430Z,94892.41
2017-07-28T00:41:37.016Z,94894.55
2017-07-28T00:44:04.651Z,94894.37
2017-07-28T00:46:32.512Z,94898.62
2017-07-28T00:49:00.088Z,94888.29
2017-07-28T00:51:27.723Z,94897.14
2017-07-28T00:53:55.307Z,94888.50
2017-07-28T00:56:22.980Z,94892.42
2017-07-28T00:58:50.754Z,94883.26
2017-07-28T01:01:18.367Z,94869.75
2017-07-28T01:03:46.602Z,94883.45
2017-07-28T01:06:14.215Z,94883.45
2017-07-28T01:08:41.799Z,94887.16
2017-07-28T01:11:09.391Z,94879.37
2017-07-28T01:13:36.994Z,94884.20
2017-07-28T01:16:04.570Z,94871.73
2017-07-28T01:18:32.098Z,94881.30
2017-07-28T01:20:59.958Z,94888.30
2017-07-28T01:23:27.504Z,94884.44
2017-07-28T01:25:55.302Z,94893.59
2017-07-28T01:28:22.865Z,94886.19
2017-07-28T01:30:50.437Z,94891.86
2017-07-28T01:33:18.006Z,94891.48
2017-07-28T01:35:45.514Z,94890.08
2017-07-28T01:38:13.138Z,94890.28
2017-07-28T01:40:40.741Z,94883.05
2017-07-28T01:43:08.313Z,94883.84
2017-07-28T01:45:35.927Z,94889.30
2017-07-28T01:48:03.462Z,94886.00
2017-07-28T01:50:31.337Z,94886.22
2017-07-28T01:52:58.987Z,94881.53
2017-07-28T01:55:26.674Z,94887.61
2017-07-28T01:57:54.472Z,94890.88
2017-07-28T02:00:22.062Z,94893.44
2017-07-28T02:02:49.688Z,94890.75
2017-07-28T02:05:18.636Z,94889.74
2017-07-28T02:07:46.240Z,94892.63
2017-07-28T02:10:13.821Z,94889.17
2017-07-28T02:12:41.353Z,94891.70
2017-07-28T02:15:08.921Z,94881.96
2017-07-28T02:17:36.449Z,94889.76
2017-07-28T02:20:04.827Z,94894.41
2017-07-28T02:22:32.476Z,94880.74
2017-07-28T02:25:02.899Z,94882.36
2017-07-28T02:27:30.463Z,94886.46
2017-07-28T02:29:58.051Z,94887.24
2017-07-28T02:32:25.608Z,94883.68
2017-07-28T02:34:53.433Z,94882.22
2017-07-28T02:37:20.951Z,94882.35
2017-07-28T02:39:48.499Z,94893.33
2017-07-28T02:42:16.069Z,94890.42
2017-07-28T02:44:43.585Z,94894.30
2017-07-28T02:47:11.130Z,94890.62
2017-07-28T02:49:38.866Z,94891.78
2017-07-28T02:52:06.649Z,94890.99
2017-07-28T02:54:34.243Z,94890.20
2017-07-28T02:57:01.794Z,94903.85
2017-07-28T02:59:33.135Z,94905.22
2017-07-28T03:04:40.122Z,94905.84
2017-07-28T03:07:07.720Z,94910.34
2017-07-28T03:09:35.249Z,94914.02
2017-07-28T03:12:02.755Z,94917.16
2017-07-28T03:14:30.325Z,94919.28
2017-07-28T03:16:58.136Z,94914.02
2017-07-28T03:19:25.690Z,94913.41
2017-07-28T03:21:53.230Z,94916.38
2017-07-28T03:24:20.857Z,94918.13
2017-07-28T03:26:48.420Z,94917.34
2017-07-28T03:29:16.291Z,94916.95
2017-07-28T03:31:43.911Z,94916.35
2017-07-28T03:34:11.459Z,94926.53
2017-07-28T03:36:38.977Z,94921.83
2017-07-28T03:39:06.517Z,94918.34
2017-07-28T03:41:34.303Z,94913.47
2017-07-28T03:44:01.917Z,94929.64
2017-07-28T03:46:29.817Z,94916.58
2017-07-28T03:48:57.317Z,94919.84
2017-07-28T03:51:25.062Z,94924.52
2017-07-28T03:53:52.658Z,94928.27
2017-07-28T03:56:20.173Z,94927.30
2017-07-28T03:58:47.700Z,94928.04
2017-07-28T04:01:15.316Z,94929.59
2017-07-28T04:03:42.817Z,94927.47
2017-07-28T04:06:11.312Z,94940.19
2017-07-28T04:08:38.851Z,94943.66
2017-07-28T04:11:06.425Z,94948.71
2017-07-28T04:13:33.968Z,94942.31
2017-07-28T04:16:01.587Z,94945.59
2017-07-28T04:18:29.170Z,94943.23
2017-07-28T04:20:56.719Z,94942.09
2017-07-28T04:23:24.290Z,94954.60
2017-07-28T04:25:51.817Z,94938.41
2017-07-28T04:28:19.365Z,94949.92
2017-07-28T04:30:46.914Z,94941.94
2017-07-28T04:33:14.453Z,94952.06
2017-07-28T04:35:42.039Z,94957.89
2017-07-28T04:38:09.630Z,94953.78
2017-07-28T04:40:37.159Z,94952.47
2017-07-28T04:43:04.722Z,94957.72
2017-07-28T04:45:32.273Z,94964.38
2017-07-28T04:47:59.789Z,94962.06
2017-07-28T04:50:27.326Z,94963.22
2017-07-28T04:52:54.907Z,94950.92
2017-07-28T04:55:22.461Z,94968.14
2017-07-28T04:57:50.040Z,94965.97
2017-07-28T05:00:17.711Z,94978.86
2017-07-28T05:02:45.254Z,94964.78
2017-07-28T05:05:12.763Z,94957.98
2017-07-28T05:07:40.306Z,94966.95
2017-07-28T05:10:07.814Z,94962.83
2017-07-28T05:12:35.321Z,94976.88
2017-07-28T05:15:02.941Z,94979.38
2017-07-28T05:17:30.448Z,94973.11
2017-07-28T05:19:57.981Z,94984.39
2017-07-28T05:22:25.543Z,94986.27
2017-07-28T05:24:53.283Z,94977.57
2017-07-28T05:27:20.786Z,94985.01
2017-07-28T05:29:48.354Z,94991.73
2017-07-28T05:32:15.893Z,94976.45
2017-07-28T05:34:43.411Z,94983.04
2017-07-28T05:37:10.941Z,94982.17
2017-07-28T05:39:38.522Z,94994.93
2017-07-28T05:42:06.046Z,94984.17
2017-07-28T05:44:33.806Z,94977.09
2017-07-28T05:47:01.681Z,94999.98
2017-07-28T05:49:29.210Z,94995.86
2017-07-28T05:51:56.715Z,95002.70
2017-07-28T05:54:24.275Z,94984.94
2017-07-28T05:56:51.794Z,94989.81
2017-07-28T05:59:19.367Z,94990.94
2017-07-28T06:01:46.915Z,94998.81
2017-07-28T06:04:14.715Z,94997.36
2017-07-28T06:06:42.233Z,94989.22
2017-07-28T06:09:09.793Z,94978.44
2017-07-28T06:11:37.292Z,94995.11
2017-07-28T06:14:04.806Z,94993.53
2017-07-28T06:16:32.362Z,94983.92
2017-07-28T06:18:59.866Z,94971.72
2017-07-28T06:21:27.391Z,94983.32
2017-07-28T06:23:55.159Z,94983.48
2017-07-28T06:26:22.897Z,94981.08
2017-07-28T06:28:50.392Z,94971.66
2017-07-28T06:31:17.959Z,94984.66
2017-07-28T06:33:45.791Z,94978.39
2017-07-28T06:36:13.318Z,94985.16
2017-07-28T06:38:40.890Z,94988.77
2017-07-28T06:41:08.421Z,94983.70
2017-07-28T06:43:35.932Z,94978.08
2017-07-28T06:46:03.517Z,94992.98
2017-07-28T06:48:31.319Z,94994.25
2017-07-28T06:50:58.839Z,94984.89
2017-07-28T06:53:26.386Z,94981.36
2017-07-28T06:55:53.935Z,94989.04
2017-07-28T06:58:21.445Z,94982.02
2017-07-28T07:00:48.988Z,94983.02
2017-07-28T07:03:16.753Z,94989.36
2017-07-28T07:05:44.295Z,94994.22
2017-07-28T07:08:11.841Z,94979.41
2017-07-28T07:10:39.385Z,94995.84
2017-07-28T07:13:06.935Z,94994.89
2017-07-28T07:15:34.518Z,95002.27
2017-07-28T07:18:02.252Z,94989.06
2017-07-28T07:20:29.794Z,94982.84
2017-07-28T07:22:57.362Z,94971.31
2017-07-28T07:25:24.912Z,94981.47
2017-07-28T07:27:52.426Z,94973.13
2017-07-28T07:30:20.001Z,94973.86
2017-07-28T07:32:47.552Z,94984.84
2017-07-28T07:35:15.172Z,94988.17
2017-07-28T07:37:42.753Z,94984.86
2017-07-28T07:40:10.519Z,94987.55
2017-07-28T07:42:38.249Z,94990.17
2017-07-28T07:45:05.830Z,94991.98
2017-07-28T07:47:33.615Z,94988.02
2017-07-28T07:50:01.118Z,94982.56
2017-07-28T07:52:28.712Z,94990.14
2017-07-28T07:54:56.228Z,94999.42
2017-07-28T07:57:23.764Z,94990.66
2017-07-28T07:59:51.334Z,94991.31
2017-07-28T08:02:18.910Z,94998.28
2017-07-28T08:04:46.470Z,95003.95
2017-07-28T08:07:14.201Z,95005.97
2017-07-28T08:09:41.765Z,95005.41
2017-07-28T08:12:09.269Z,94998.45
2017-07-28T08:14:37.224Z,95005.23
2017-07-28T08:17:04.772Z,94997.77
2017-07-28T08:19:32.294Z,95013.28
2017-07-28T08:21:59.803Z,95009.78
2017-07-28T08:24:27.585Z,95001.68
2017-07-28T08:26:55.151Z,95001.73
2017-07-28T08:29:22.733Z,95004.31
2017-07-28T08:31:50.279Z,95009.81
2017-07-28T08:34:18.068Z,95012.62
2017-07-28T08:36:45.572Z,95020.60
2017-07-28T08:39:13.173Z,95017.52
2017-07-28T08:41:40.744Z,95027.31
2017-07-28T08:44:08.522Z,95024.08
2017-07-28T08:46:36.067Z,95033.77
2017-07-28T08:49:03.593Z,95034.56
2017-07-28T08:51:31.118Z,95023.20
2017-07-28T08:53:58.684Z,95019.47
2017-07-28T08:56:26.245Z,95033.74
2017-07-28T08:58:53.801Z,95034.53
2017-07-28T09:01:21.378Z,95024.33
2017-07-28T09:03:48.987Z,95030.42
2017-07-28T09:06:16.595Z,95037.86
2017-07-28T09:08:44.191Z,95031.55
2017-07-28T09:11:11.720Z,95032.00
2017-07-28T09:13:39.301Z,95040.53
2017-07-28T09:16:06.852Z,95039.37
2017-07-28T09:18:34.437Z,95025.56
2017-07-28T09:21:01.982Z,95035.25
2017-07-28T09:23:29.581Z,95033.29
2017-07-28T09:25:57.089Z,95048.88
2017-07-28T09:28:24.650Z,95048.04
2017-07-28T09:30:52.217Z,95050.77
2017-07-28T09:33:19.969Z,95046.05
2017-07-28T09:35:47.476Z,95050.94
2017-07-28T09:38:15.066Z,95051.73
2017-07-28T09:40:42.668Z,95049.41
2017-07-28T09:43:10.268Z,95048.25
2017-07-28T09:45:37.849Z,95051.88
2017-07-28T09:48:05.361Z,95053.26
2017-07-28T09:50:33.152Z,95043.56
2017-07-28T09:53:00.726Z,95050.26
2017-07-28T09:55:28.355Z,95052.19
2017-07-28T09:57:55.912Z,95064.10
2017-07-28T10:00:23.766Z,95057.53
2017-07-28T10:02:51.270Z,95062.05
2017-07-28T10:05:18.794Z,95056.02
2017-07-28T10:07:46.439Z,95060.28
2017-07-28T10:10:13.969Z,95056.03
2017-07-28T10:12:41.489Z,95051.03
2017-07-28T10:15:09.063Z,95072.16
2017-07-28T10:17:36.631Z,95074.06
2017-07-28T10:20:05.073Z,95075.77
2017-07-28T10:22:32.614Z,95069.12
2017-07-28T10:25:00.175Z,95065.42
2017-07-28T10:27:27.772Z,95071.50
2017-07-28T10:29:55.399Z,95075.42
2017-07-28T10:32:22.950Z,95079.95
2017-07-28T10:34:50.464Z,95080.20
2017-07-28T10:37:18.009Z,95097.02
2017-07-28T10:39:45.631Z,95095.99
2017-07-28T10:42:13.158Z,95092.39
2017-07-28T10:44:40.669Z,95083.92
2017-07-28T10:47:08.242Z,95079.30
2017-07-28T10:49:35.799Z,95096.41
2017-07-28T10:52:03.353Z,95085.12
2017-07-28T10:54:30.992Z,95075.14
2017-07-28T10:56:58.528Z,95076.61
2017-07-28T10:59:26.061Z,95089.28
2017-07-28T11:01:53.837Z,95091.05
2017-07-28T11:04:21.534Z,95084.61
2017-07-28T11:06:49.045Z,95098.78
2017-07-28T11:09:16.604Z,95090.88
2017-07-28T11:11:44.142Z,95103.91
2017-07-28T11:14:11.689Z,95092.44
2017-07-28T11:16:39.559Z,95111.05
2017-07-28T11:19:07.131Z,95106.97
2017-07-28T11:21:34.734Z,95104.77
2017-07-28T11:24:02.349Z,95097.73
2017-07-28T11:26:29.893Z,95101.03
2017-07-28T11:28:57.424Z,95102.24
2017-07-28T11:31:24.961Z,95102.45
2017-07-28T11:33:52.540Z,95087.60
2017-07-28T11:36:20.343Z,95103.91
2017-07-28T11:38:47.924Z,95104.93
2017-07-28T11:41:15.477Z,95102.97
2017-07-28T11:43:43.064Z,95098.60
2017-07-28T11:46:10.635Z,95082.80
2017-07-28T11:48:38.170Z,95101.72
2017-07-28T11:51:05.709Z,95071.41
2017-07-28T11:53:33.269Z,95098.39
2017-07-28T11:56:00.839Z,95100.80
2017-07-28T11:58:28.349Z,95095.88
2017-07-28T12:00:55.956Z,95093.48
2017-07-28T12:03:23.474Z,95102.38
2017-07-28T12:05:50.985Z,95097.51
2017-07-28T12:08:18.749Z,95089.77
2017-07-28T12:10:46.547Z,95084.10
2017-07-28T12:13:14.085Z,95092.05
2017-07-28T12:15:41.667Z,95085.56
2017-07-28T12:18:09.213Z,95085.07
2017-07-28T12:20:36.803Z,95082.37
2017-07-28T12:23:04.413Z,95096.52
2017-07-28T12:25:32.213Z,95087.28
2017-07-28T12:27:59.754Z,95086.75
2017-07-28T12:30:27.410Z,95087.23
2017-07-28T12:32:54.938Z,95100.73
2017-07-28T12:35:22.531Z,95092.97
2017-07-28T12:37:50.119Z,95088.39
2017-07-28T12:40:17.707Z,95090.39
2017-07-28T12:42:45.250Z,95095.13
2017-07-28T12:45:13.766Z,95086.48
2017-07-28T12:47:41.366Z,95080.56
2017-07-28T12:50:09.893Z,95086.97
2017-07-28T12:52:37.470Z,95088.08
2017-07-28T12:55:05.007Z,95075.98
2017-07-28T12:57:32.564Z,95078.89
2017-07-28T13:00:00.146Z,95075.33
2017-07-28T13:02:27.745Z,95081.20
2017-07-28T13:04:55.302Z,95090.91
2017-07-28T13:07:22.908Z,95089.02
2017-07-28T13:09:50.497Z,95089.02
2017-07-28T13:12:18.023Z,95082.28
2017-07-28T13:14:45.564Z,95089.47
2017-07-28T13:17:13.112Z,95098.98
2017-07-28T13:19:40.678Z,95081.20
2017-07-28T13:22:08.194Z,95086.02
2017-07-28T13:24:35.953Z,95083.55
2017-07-28T13:27:03.595Z,95081.98
2017-07-28T13:29:31.109Z,95081.66
2017-07-28T13:31:58.694Z,95077.05
2017-07-28T13:34:26.204Z,95088.48
2017-07-28T13:36:53.725Z,95083.86
2017-07-28T13:39:21.486Z,95081.70
2017-07-28T13:41:49.046Z,95088.32
2017-07-28T13:44:16.833Z,95079.50
2017-07-28T13:46:49.934Z,95082.19
2017-07-28T13:49:17.514Z,95066.56
2017-07-28T13:51:45.034Z,95083.95
2017-07-28T13:54:12.602Z,95092.26
2017-07-28T13:56:40.155Z,95077.84
2017-07-28T13:59:07.657Z,95077.84
2017-07-28T14:01:35.255Z,95078.91
2017-07-28T14:04:02.833Z,95081.09
2017-07-28T14:06:30.649Z,95077.84
2017-07-28T14:08:58.243Z,95074.45
2017-07-28T14:11:26.007Z,95069.31
2017-07-28T14:13:53.574Z,95065.80
2017-07-28T14:16:21.147Z,95069.37
2017-07-28T14:18:48.666Z,95068.75
2017-07-28T14:21:16.169Z,95079.70
2017-07-28T14:23:43.721Z,95074.38
2017-07-28T14:26:11.290Z,95071.81
2017-07-28T14:28:39.177Z,95075.42
2017-07-28T14:31:07.230Z,95067.53
2017-07-28T14:33:34.974Z,95077.19
2017-07-28T14:36:02.539Z,95065.61
2017-07-28T14:38:30.089Z,95063.11
2017-07-28T14:40:57.840Z,95069.12
2017-07-28T14:43:25.455Z,95070.11
2017-07-28T14:45:53.021Z,95070.83
2017-07-28T14:48:20.654Z,95062.45
2017-07-28T14:50:48.194Z,95063.68
2017-07-28T14:53:15.768Z,95061.94
2017-07-28T14:55:43.407Z,95063.46
2017-07-28T14:58:10.977Z,95071.44
2017-07-28T15:00:38.620Z,95049.08
2017-07-28T15:03:06.391Z,95054.31
2017-07-28T15:05:34.028Z,95055.27
2017-07-28T15:08:01.623Z,95058.31
2017-07-28T15:10:29.221Z,95054.56
2017-07-28T15:12:56.767Z,95060.56
2017-07-28T15:15:25.055Z,95060.55
2017-07-28T15:17:52.682Z,95068.85
2017-07-28T15:20:20.252Z,95066.81
2017-07-28T15:22:47.843Z,95066.42
2017-07-28T15:25:15.445Z,95065.97
2017-07-28T15:27:43.208Z,95069.78
2017-07-28T15:30:10.869Z,95072.48
2017-07-28T15:32:38.474Z,95065.83
2017-07-28T15:35:06.249Z,95053.72
2017-07-28T15:37:33.839Z,95063.68
2017-07-28T15:40:01.415Z,95068.80
2017-07-28T15:42:29.179Z,95077.70
2017-07-28T15:44:56.756Z,95073.43
2017-07-28T15:47:24.340Z,95072.70
2017-07-28T15:49:51.888Z,95088.84
2017-07-28T15:52:19.520Z,95079.55
2017-07-28T15:54:47.279Z,95087.53
2017-07-28T15:57:14.884Z,95081.14
2017-07-28T15:59:42.529Z,95083.49
2017-07-28T16:02:10.273Z,95095.95
2017-07-28T16:04:37.892Z,95080.16
2017-07-28T16:07:05.440Z,95087.68
2017-07-28T16:09:33.028Z,95072.16
2017-07-28T16:12:01.396Z,95083.38
2017-07-28T16:14:28.924Z,95087.31
2017-07-28T16:16:56.537Z,95081.45
2017-07-28T16:19:24.164Z,95090.20
2017-07-28T16:21:51.709Z,95093.51
2017-07-28T16:24:20.787Z,95085.42
2017-07-28T16:26:48.540Z,95086.15
2017-07-28T16:29:16.251Z,95086.39
2017-07-28T16:31:44.021Z,95096.94
2017-07-28T16:34:11.611Z,95097.16
2017-07-28T16:36:39.318Z,95103.56
2017-07-28T16:39:07.827Z,95099.39
2017-07-28T16:41:35.373Z,95115.75
2017-07-28T16:44:03.020Z,95114.69
2017-07-28T16:46:31.519Z,95115.80
2017-07-28T16:48:59.138Z,95116.80
2017-07-28T16:51:26.718Z,95125.52
2017-07-28T16:53:54.315Z,95120.64
2017-07-28T16:56:21.877Z,95121.53
2017-07-28T16:58:49.632Z,95124.41
2017-07-28T17:01:17.189Z,95129.00
2017-07-28T17:03:44.699Z,95136.88
2017-07-28T17:06:12.206Z,95134.73
2017-07-28T17:08:39.816Z,95136.08
2017-07-28T17:11:07.323Z,95134.88
2017-07-28T17:13:34.827Z,95143.34
2017-07-28T17:16:03.021Z,95142.75
2017-07-28T17:18:30.570Z,95133.76
2017-07-28T17:20:59.748Z,95150.30
2017-07-28T17:23:27.610Z,95146.66
2017-07-28T17:25:55.163Z,95145.77
2017-07-28T17:28:22.754Z,95154.77
2017-07-28T17:30:50.306Z,95156.64
2017-07-28T17:33:17.827Z,95161.36
2017-07-28T17:35:45.685Z,95167.73
2017-07-28T17:38:13.280Z,95169.52
2017-07-28T17:40:41.441Z,95178.33
2017-07-28T17:43:08.947Z,95179.57
2017-07-28T17:45:36.506Z,95176.75
2017-07-28T17:48:04.019Z,95179.74
2017-07-28T17:50:31.523Z,95186.42
2017-07-28T17:52:59.075Z,95188.27
2017-07-28T17:55:26.850Z,95191.41
2017-07-28T17:57:54.365Z,95197.37
2017-07-28T18:00:22.117Z,95193.99
2017-07-28T18:02:49.684Z,95195.41
2017-07-28T18:05:17.243Z,95190.83
2017-07-28T18:07:44.800Z,95197.22
2017-07-28T18:10:12.663Z,95207.45
2017-07-28T18:12:40.455Z,95212.84
2017-07-28T18:15:08.098Z,95216.34
2017-07-28T18:17:35.602Z,95215.62
2017-07-28T18:20:03.177Z,95217.27
2017-07-28T18:22:30.712Z,95219.20
2017-07-28T18:24:58.262Z,95221.32
2017-07-28T18:27:26.027Z,95218.80
2017-07-28T18:29:53.603Z,95219.79
2017-07-28T18:32:21.236Z,95221.67
2017-07-28T18:34:48.777Z,95220.10
2017-07-28T18:37:16.336Z,95224.53
2017-07-28T18:39:44.116Z,95222.03
2017-07-28T18:42:11.953Z,95221.67
2017-07-28T18:44:39.474Z,95228.20
2017-07-28T18:47:07.239Z,95221.16
2017-07-28T18:49:35.866Z,95229.34
2017-07-28T18:52:03.598Z,95230.24
2017-07-28T18:54:31.158Z,95232.02
2017-07-28T18:56:58.739Z,95234.12
2017-07-28T18:59:26.628Z,95238.41
2017-07-28T19:01:54.197Z,95243.10
2017-07-28T19:04:21.734Z,95247.88
2017-07-28T19:06:49.271Z,95237.81
2017-07-28T19:09:16.819Z,95259.33
2017-07-28T19:11:44.402Z,95259.04
2017-07-28T19:14:12.011Z,95252.92
2017-07-28T19:16:39.594Z,95253.78
2017-07-28T19:19:07.160Z,95265.59
2017-07-28T19:21:34.738Z,95265.00
2017-07-28T19:24:02.373Z,95273.23
2017-07-28T19:26:29.942Z,95276.64
2017-07-28T19:28:58.284Z,95276.19
2017-07-28T19:31:25.840Z,95268.32
2017-07-28T19:33:53.684Z,95273.89
2017-07-28T19:36:21.545Z,95277.63
2017-07-28T19:38:49.113Z,95280.88
2017-07-28T19:41:16.636Z,95282.35
2017-07-28T19:43:44.212Z,95275.50
2017-07-28T19:46:11.763Z,95281.17
2017-07-28T19:48:39.542Z,95283.20
2017-07-28T19:51:07.070Z,95283.01
2017-07-28T19:53:34.672Z,95286.09
2017-07-28T19:56:02.277Z,95285.83
2017-07-28T19:58:29.807Z,95288.88
2017-07-28T20:00:57.416Z,95293.06
2017-07-28T20:03:24.978Z,95290.66
2017-07-28T20:05:52.535Z,95295.91
2017-07-28T20:08:20.161Z,95299.48
2017-07-28T20:10:47.931Z,95298.50
2017-07-28T20:13:15.682Z,95303.77
2017-07-28T20:15:43.399Z,95300.63
2017-07-28T20:18:10.971Z,95310.43
2017-07-28T20:20:38.495Z,95301.02
2017-07-28T20:23:06.978Z,95305.15
2017-07-28T20:25:34.773Z,95302.52
2017-07-28T20:28:02.392Z,95309.73
2017-07-28T20:30:29.937Z,95310.97
2017-07-28T20:32:57.514Z,95314.73
2017-07-28T20:35:25.055Z,95318.12
2017-07-28T20:37:52.647Z,95323.52
2017-07-28T20:40:20.169Z,95330.88
2017-07-28T20:42:47.728Z,95330.68
2017-07-28T20:45:15.271Z,95336.73
2017-07-28T20:47:42.843Z,95336.89
2017-07-28T20:50:10.394Z,95339.19
2017-07-28T20:52:38.009Z,95341.42
2017-07-28T20:55:05.630Z,95340.93
2017-07-28T20:57:33.231Z,95347.02
2017-07-28T21:00:00.828Z,95360.02
2017-07-28T21:02:28.667Z,95365.46
2017-07-28T21:04:56.243Z,95364.13
2017-07-28T21:07:23.794Z,95367.75
2017-07-28T21:09:51.434Z,95366.97
2017-07-28T21:12:19.024Z,95368.30
2017-07-28T21:14:46.857Z,95373.25
2017-07-28T21:17:14.486Z,95382.09
2017-07-28T21:19:42.057Z,95372.15
2017-07-28T21:22:09.565Z,95382.93
2017-07-28T21:24:37.117Z,95382.69
2017-07-28T21:27:04.702Z,95387.12
2017-07-28T21:29:32.309Z,95389.42
2017-07-28T21:31:59.935Z,95390.24
2017-07-28T21:34:27.511Z,95395.16
2017-07-28T21:36:55.082Z,95395.52
2017-07-28T21:39:22.675Z,95389.36
2017-07-28T21:41:50.413Z,95398.03
2017-07-28T21:44:17.985Z,95394.07
2017-07-28T21:46:46.079Z,95379.12
2017-07-28T21:49:22.191Z,95393.38
2017-07-28T21:51:49.771Z,95396.61
2017-07-28T21:54:19.857Z,95400.02
2017-07-28T21:56:49.451Z,95406.55
2017-07-28T21:59:22.373Z,95403.03
2017-07-28T22:01:51.459Z,95410.02
2017-07-28T22:04:22.341Z,95416.65
2017-07-28T22:06:49.907Z,95413.58
2017-07-28T22:09:17.528Z,95413.02
2017-07-28T22:11:45.049Z,95419.47
2017-07-28T22:14:12.862Z,95421.43
2017-07-28T22:16:40.407Z,95413.80
2017-07-28T22:19:07.953Z,95413.44
2017-07-28T22:21:35.482Z,95427.41
2017-07-28T22:24:03.049Z,95426.62
2017-07-28T22:26:30.616Z,95426.46
2017-07-28T22:28:58.144Z,95429.17
2017-07-28T22:31:25.695Z,95423.28
2017-07-28T22:33:53.217Z,95423.09
2017-07-28T22:36:20.729Z,95429.75
2017-07-28T22:38:48.610Z,95421.52
2017-07-28T22:41:16.552Z,95422.16
2017-07-28T22:43:44.060Z,95425.28
2017-07-28T22:46:11.637Z,95422.36
2017-07-28T22:48:39.451Z,95422.36
2017-07-28T22:51:07.057Z,95426.28
2017-07-28T22:53:34.633Z,95429.47
2017-07-28T22:56:02.227Z,95426.58
2017-07-28T22:58:29.794Z,95422.88
2017-07-28T23:00:57.438Z,95425.83
2017-07-28T23:03:25.029Z,95418.38
2017-07-28T23:05:52.587Z,95420.55
2017-07-28T23:08:20.195Z,95416.47
2017-07-28T23:10:47.999Z,95425.30
2017-07-28T23:13:16.799Z,95417.25
2017-07-28T23:15:44.372Z,95429.05
2017-07-28T23:18:11.908Z,95422.17
2017-07-28T23:20:39.658Z,95423.21
2017-07-28T23:23:07.244Z,95423.60
2017-07-28T23:25:34.815Z,95431.41
2017-07-28T23:28:02.392Z,95435.92
2017-07-28T23:30:29.976Z,95432.99
2017-07-28T23:32:57.567Z,95443.02
2017-07-28T23:35:25.086Z,95439.09
2017-07-28T23:37:52.695Z,95451.25
2017-07-28T23:40:20.243Z,95447.91
2017-07-28T23:42:47.798Z,95447.30
2017-07-28T23:45:15.367Z,95453.00
2017-07-28T23:47:42.892Z,95454.55
2017-07-28T23:50:10.447Z,95450.26
2017-07-28T23:52:39.068Z,95452.42
2017-07-28T23:55:06.668Z,95461.81
2017-07-28T23:57:34.196Z,95460.44
